Time;durP1;ratioP1;P1;durP2;ratioP2;P2;SDS_P1;SDS_P2;PMS_P1;PMS_P2;Temp;Humidity;BMP_temperature;BMP_pressure;BME280_temperature;BME280_humidity;BME280_pressure;Samples;Min_cycle;Max_cycle;Signal;HPM_P1;HPM_P2
2022/01/17 00:02:42;;;;;;;8.63;5.10;;;23.10;38.60;;;;;;6087201;28;87797;-70
2022/01/17 00:05:43;;;;;;;7.68;4.78;;;23.10;38.50;;;;;;6088206;28;80416;-69
2022/01/17 00:08:44;;;;;;;6.68;5.00;;;23.10;38.40;;;;;;6079418;28;80254;-70
2022/01/17 00:11:48;;;;;;;7.97;5.10;;;23.10;38.50;;;;;;6082604;28;80728;-69
2022/01/17 00:14:49;;;;;;;7.30;4.90;;;23.10;38.30;;;;;;6089460;28;80530;-69
2022/01/17 00:17:56;;;;;;;7.15;4.35;;;23.10;38.40;;;;;;6086385;28;80516;-68
2022/01/17 00:20:58;;;;;;;9.45;4.47;;;23.10;38.30;;;;;;6103706;28;82431;-68
2022/01/17 00:23:58;;;;;;;8.05;5.07;;;23.10;38.30;;;;;;6086694;28;80397;-68
2022/01/17 00:26:59;;;;;;;5.47;4.30;;;23.10;38.20;;;;;;6087580;28;81960;-68
2022/01/17 00:30:02;;;;;;;5.78;4.10;;;23.10;38.30;;;;;;6086333;28;80424;-68
2022/01/17 00:33:02;;;;;;;8.02;4.40;;;23.10;38.10;;;;;;6085670;28;80683;-68
2022/01/17 00:36:03;;;;;;;6.40;3.95;;;23.10;38.20;;;;;;6088145;28;80401;-68
2022/01/17 00:39:03;;;;;;;7.07;4.45;;;23.10;38.30;;;;;;6087157;28;81449;-68
2022/01/17 00:42:04;;;;;;;5.85;4.07;;;23.10;38.30;;;;;;6072615;28;80968;-68
2022/01/17 00:45:07;;;;;;;6.07;3.85;;;23.10;38.60;;;;;;6082816;28;80503;-68
2022/01/17 00:48:07;;;;;;;6.35;4.22;;;23.10;39.00;;;;;;6086446;28;80324;-68
2022/01/17 00:51:08;;;;;;;4.32;3.28;;;23.10;38.90;;;;;;6095430;28;80384;-68
2022/01/17 00:54:08;;;;;;;4.85;3.28;;;23.00;38.70;;;;;;6086885;28;80519;-68
2022/01/17 00:57:10;;;;;;;5.07;3.05;;;23.00;38.90;;;;;;6088105;28;80464;-68
2022/01/17 01:00:11;;;;;;;5.90;3.88;;;23.00;38.80;;;;;;6070033;28;82996;-68
2022/01/17 01:03:11;;;;;;;4.47;3.40;;;23.00;39.20;;;;;;6070255;28;80791;-68
2022/01/17 01:06:12;;;;;;;6.15;3.28;;;23.00;39.00;;;;;;6087433;28;80892;-68
2022/01/17 01:09:14;;;;;;;4.22;3.20;;;23.00;39.10;;;;;;6088164;28;80402;-69
2022/01/17 01:12:14;;;;;;;4.60;3.10;;;23.00;39.30;;;;;;6090174;28;80744;-68
2022/01/17 01:15:19;;;;;;;3.90;3.15;;;23.00;39.30;;;;;;6087298;28;80315;-67
2022/01/17 01:18:29;;;;;;;3.08;2.50;;;23.00;39.50;;;;;;6085922;28;81514;-66
2022/01/17 01:27:59;;;;;;;3.95;2.60;;;23.00;39.70;;;;;;6085050;28;80527;-68
2022/01/17 01:31:03;;;;;;;3.50;2.85;;;23.00;39.50;;;;;;6090052;28;80596;-68
2022/01/17 01:34:05;;;;;;;3.70;2.78;;;23.00;39.60;;;;;;6092175;28;80732;-68
2022/01/17 01:37:06;;;;;;;4.05;2.97;;;23.00;40.00;;;;;;6104051;28;80619;-68
2022/01/17 01:40:07;;;;;;;3.15;2.67;;;22.90;39.70;;;;;;6090549;28;81309;-68
2022/01/17 01:43:07;;;;;;;3.10;2.55;;;22.90;39.80;;;;;;6090362;28;80385;-69
2022/01/17 01:46:10;;;;;;;3.67;2.65;;;22.90;39.70;;;;;;6092542;28;80534;-68
2022/01/17 01:49:10;;;;;;;3.28;2.53;;;23.00;39.70;;;;;;6091259;28;81990;-70
2022/01/17 01:52:11;;;;;;;3.00;2.50;;;23.00;39.90;;;;;;6078778;28;81903;-68
2022/01/17 01:55:11;;;;;;;2.55;2.30;;;23.00;39.80;;;;;;6107296;28;80481;-68
2022/01/17 01:58:12;;;;;;;2.58;2.38;;;23.00;39.80;;;;;;6091958;28;81647;-69
2022/01/17 02:01:12;;;;;;;4.10;2.60;;;23.00;39.20;;;;;;6090194;28;86688;-68
2022/01/17 02:04:13;;;;;;;2.72;2.30;;;22.90;39.30;;;;;;6100327;28;81232;-68
2022/01/17 02:07:15;;;;;;;3.00;2.30;;;23.00;39.30;;;;;;6106252;28;80561;-68
2022/01/17 02:10:15;;;;;;;3.75;2.45;;;23.00;39.30;;;;;;6103787;28;80286;-68
2022/01/17 02:13:16;;;;;;;2.15;1.95;;;22.90;39.00;;;;;;6097649;28;80272;-68
2022/01/17 02:16:16;;;;;;;2.53;2.28;;;23.00;39.40;;;;;;6107124;28;80995;-67
2022/01/17 02:19:21;;;;;;;2.95;2.22;;;23.00;39.40;;;;;;6088629;28;81905;-67
2022/01/17 02:22:21;;;;;;;2.45;1.80;;;23.00;39.20;;;;;;6091832;28;80962;-68
2022/01/17 02:25:22;;;;;;;2.67;2.33;;;23.00;39.30;;;;;;6090479;28;81794;-68
2022/01/17 02:28:22;;;;;;;3.25;2.15;;;22.90;39.30;;;;;;6091791;28;80084;-68
2022/01/17 02:31:23;;;;;;;2.45;2.03;;;22.90;40.50;;;;;;6101657;28;80426;-68
2022/01/17 02:34:23;;;;;;;2.50;2.00;;;22.90;40.60;;;;;;6099409;28;80087;-68
2022/01/17 02:37:24;;;;;;;2.63;1.92;;;22.90;40.50;;;;;;6064688;28;82466;-68
2022/01/17 02:40:24;;;;;;;2.40;2.20;;;22.90;40.30;;;;;;6090713;28;80621;-68
2022/01/17 02:43:26;;;;;;;2.38;1.98;;;22.90;40.00;;;;;;6106563;28;80896;-68
2022/01/17 02:46:27;;;;;;;2.13;1.58;;;22.90;40.10;;;;;;6092432;28;81423;-68
2022/01/17 02:49:27;;;;;;;2.55;1.80;;;22.90;40.80;;;;;;6109974;28;86534;-68
2022/01/17 02:52:28;;;;;;;2.13;1.92;;;22.90;40.70;;;;;;6108118;28;80898;-68
2022/01/17 02:55:28;;;;;;;2.05;1.52;;;22.90;40.80;;;;;;6094929;28;80411;-69
2022/01/17 02:58:32;;;;;;;1.92;1.80;;;22.90;40.40;;;;;;6104859;28;81612;-68
2022/01/17 03:01:32;;;;;;;2.35;1.95;;;22.90;40.70;;;;;;6090052;28;86544;-69
2022/01/17 03:04:33;;;;;;;2.13;1.92;;;22.90;40.80;;;;;;6101078;28;82265;-69
2022/01/17 03:07:33;;;;;;;1.70;1.60;;;22.90;40.90;;;;;;6090324;28;80392;-68
2022/01/17 03:10:40;;;;;;;1.77;1.50;;;22.90;40.70;;;;;;6092701;28;80772;-68
2022/01/17 03:13:40;;;;;;;1.70;1.60;;;22.90;42.10;;;;;;6097502;28;80268;-69
2022/01/17 03:16:46;;;;;;;2.15;1.88;;;22.90;40.00;;;;;;6094735;28;80556;-68
2022/01/17 03:19:47;;;;;;;2.97;1.85;;;22.90;39.30;;;;;;6103966;28;80757;-68
2022/01/17 03:22:47;;;;;;;2.05;1.52;;;22.90;39.00;;;;;;6089485;28;81756;-68
2022/01/17 03:25:48;;;;;;;1.42;1.33;;;22.90;39.80;;;;;;6105509;28;83168;-68
2022/01/17 03:28:48;;;;;;;1.60;1.50;;;23.00;39.20;;;;;;6107043;28;80022;-68
2022/01/17 03:31:49;;;;;;;1.40;1.30;;;23.00;38.90;;;;;;6089188;28;81187;-68
2022/01/17 03:34:49;;;;;;;1.48;1.38;;;23.10;38.70;;;;;;6089247;28;80626;-68
2022/01/17 03:37:50;;;;;;;2.42;1.60;;;23.10;38.60;;;;;;6077415;28;80747;-68
2022/01/17 03:40:51;;;;;;;1.38;1.27;;;23.20;38.60;;;;;;6098394;28;80857;-68
2022/01/17 03:43:52;;;;;;;1.83;1.50;;;23.30;38.60;;;;;;6102600;28;80325;-68
2022/01/17 03:46:52;;;;;;;2.08;1.65;;;23.30;38.60;;;;;;6097036;28;80515;-68
2022/01/17 03:49:52;;;;;;;2.17;1.65;;;23.40;38.40;;;;;;6094339;28;81819;-68
2022/01/17 03:52:53;;;;;;;1.73;1.63;;;23.40;38.30;;;;;;6086889;28;80595;-68
2022/01/17 03:55:54;;;;;;;2.58;1.63;;;23.40;38.30;;;;;;6090215;28;84802;-69
2022/01/17 03:58:54;;;;;;;1.60;1.50;;;23.40;38.10;;;;;;6088453;28;80945;-68
2022/01/17 04:01:55;;;;;;;1.70;1.60;;;23.40;38.00;;;;;;6087619;28;80612;-68
2022/01/17 04:04:55;;;;;;;2.15;1.95;;;23.50;37.90;;;;;;6087133;28;80394;-68
2022/01/17 04:07:56;;;;;;;1.92;1.83;;;23.50;37.90;;;;;;6078071;28;83538;-69
2022/01/17 04:10:56;;;;;;;1.95;1.60;;;23.50;37.70;;;;;;6091614;28;80488;-68
2022/01/17 04:13:57;;;;;;;2.33;1.90;;;23.50;37.60;;;;;;6087773;28;81384;-69
2022/01/17 04:16:57;;;;;;;2.92;1.75;;;23.50;37.80;;;;;;6089270;28;81756;-69
2022/01/17 04:20:06;;;;;;;1.92;1.70;;;23.60;37.60;;;;;;6101178;28;80861;-69
2022/01/17 04:23:07;;;;;;;2.75;2.03;;;23.60;37.50;;;;;;6091452;28;81466;-69
2022/01/17 04:26:07;;;;;;;2.25;2.05;;;23.60;37.60;;;;;;6093762;28;84968;-69
2022/01/17 04:29:08;;;;;;;2.38;1.98;;;23.60;37.60;;;;;;6088265;28;81450;-69
2022/01/17 04:32:08;;;;;;;1.55;1.45;;;23.60;37.70;;;;;;6086777;28;80339;-68
2022/01/17 04:35:09;;;;;;;2.95;2.03;;;23.60;37.60;;;;;;6072474;28;81656;-69
2022/01/17 04:38:10;;;;;;;2.33;1.80;;;23.60;37.70;;;;;;6092716;28;80601;-68
2022/01/17 04:41:15;;;;;;;2.10;1.90;;;23.60;37.70;;;;;;6083470;28;81934;-69
2022/01/17 04:47:36;;;;;;;2.10;1.90;;;23.60;38.00;;;;;;6086971;28;80374;-68
2022/01/17 04:50:36;;;;;;;2.35;1.90;;;23.60;38.40;;;;;;6095023;28;80662;-72
2022/01/17 04:53:38;;;;;;;3.00;2.05;;;23.70;37.80;;;;;;6100268;28;81118;-69
2022/01/17 04:56:39;;;;;;;2.72;2.22;;;23.70;38.10;;;;;;6093260;28;80363;-69
2022/01/17 04:59:42;;;;;;;4.70;3.15;;;23.70;37.80;;;;;;6087337;28;80449;-72
2022/01/17 05:02:43;;;;;;;3.08;1.95;;;23.70;37.80;;;;;;6101190;28;80878;-70
2022/01/17 05:05:43;;;;;;;2.42;1.90;;;23.70;38.10;;;;;;6098045;28;80741;-69
2022/01/17 05:08:44;;;;;;;2.80;2.28;;;23.70;37.80;;;;;;6099323;28;80249;-68
2022/01/17 05:11:45;;;;;;;121.43;56.45;;;23.80;38.00;;;;;;6106019;28;80472;-69
2022/01/17 05:14:49;;;;;;;165.45;77.40;;;23.80;38.60;;;;;;6101044;28;83189;-68
2022/01/17 05:21:16;;;;;;;90.47;43.92;;;23.90;39.20;;;;;;6066940;28;84564;-68
2022/01/17 05:24:16;;;;;;;217.32;107.25;;;23.90;39.90;;;;;;6054697;28;84632;-63
2022/01/17 05:27:17;;;;;;;287.52;144.45;;;24.00;39.80;;;;;;6082243;28;85416;-66
2022/01/17 05:30:18;;;;;;;290.02;140.35;;;24.00;39.60;;;;;;6078801;28;85596;-68
2022/01/17 05:33:18;;;;;;;234.57;114.78;;;24.00;39.80;;;;;;6081897;28;85385;-68
2022/01/17 05:36:19;;;;;;;171.18;81.97;;;24.00;39.80;;;;;;6082302;28;85901;-66
2022/01/17 05:39:19;;;;;;;130.98;63.90;;;23.80;40.50;;;;;;6090586;28;85586;-67
2022/01/17 05:42:20;;;;;;;111.97;55.08;;;23.70;41.20;;;;;;6087298;28;83286;-69
2022/01/17 05:45:20;;;;;;;93.70;44.38;;;23.60;41.80;;;;;;6080921;28;82885;-66
2022/01/17 05:48:21;;;;;;;75.05;36.22;;;23.60;42.10;;;;;;6083514;28;83024;-67
2022/01/17 05:51:21;;;;;;;56.22;26.98;;;23.60;42.80;;;;;;6073615;28;83015;-69
2022/01/17 05:54:22;;;;;;;55.25;24.10;;;23.60;43.90;;;;;;6079748;28;83235;-66
2022/01/17 05:57:22;;;;;;;46.00;22.60;;;23.50;44.80;;;;;;6089627;28;84979;-66
2022/01/17 06:00:23;;;;;;;39.13;18.90;;;23.50;45.20;;;;;;6087820;28;83467;-67
2022/01/17 06:03:25;;;;;;;32.20;15.18;;;23.40;45.60;;;;;;6080741;28;83155;-65
2022/01/17 06:06:26;;;;;;;29.90;14.55;;;23.40;46.00;;;;;;6082237;28;83000;-68
2022/01/17 06:12:33;;;;;;;21.90;11.23;;;23.40;46.60;;;;;;6882668;23;85814;-68
2022/01/17 06:15:33;;;;;;;19.92;9.13;;;23.40;47.00;;;;;;6094544;28;83016;-68
2022/01/17 06:18:34;;;;;;;18.38;9.20;;;23.40;47.50;;;;;;6102793;28;84455;-66
2022/01/17 06:21:36;;;;;;;16.42;9.02;;;23.40;47.50;;;;;;6101895;28;81321;-69
2022/01/17 06:24:37;;;;;;;13.52;7.43;;;23.40;47.90;;;;;;6096018;28;80697;-68
2022/01/17 06:27:37;;;;;;;13.98;7.70;;;23.40;48.00;;;;;;6105047;28;82696;-68
2022/01/17 06:30:38;;;;;;;11.30;6.20;;;23.40;48.80;;;;;;6107138;28;80310;-67
2022/01/17 06:33:38;;;;;;;12.52;6.47;;;23.40;48.40;;;;;;6111934;28;80318;-67
2022/01/17 06:36:42;;;;;;;12.98;6.50;;;23.40;48.50;;;;;;6111116;28;80830;-67
2022/01/17 06:39:42;;;;;;;11.52;6.32;;;23.40;49.00;;;;;;6097088;28;80594;-68
2022/01/17 06:42:43;;;;;;;12.82;6.45;;;23.30;48.10;;;;;;6099703;28;80478;-67
2022/01/17 06:45:45;;;;;;;11.70;6.50;;;23.30;47.90;;;;;;6107932;28;81651;-67
2022/01/17 06:48:46;;;;;;;12.10;5.80;;;23.30;47.70;;;;;;6102219;28;81825;-70
2022/01/17 06:51:47;;;;;;;12.60;6.13;;;23.30;47.40;;;;;;6111394;28;80445;-68
2022/01/17 06:54:47;;;;;;;16.98;6.10;;;23.30;47.50;;;;;;6112013;28;81358;-70
2022/01/17 06:57:48;;;;;;;11.27;5.70;;;23.30;47.60;;;;;;6109897;28;80473;-70
2022/01/17 07:00:48;;;;;;;8.60;5.00;;;23.30;47.40;;;;;;6092976;28;83435;-70
2022/01/17 07:03:49;;;;;;;9.35;4.55;;;23.20;47.10;;;;;;6112457;28;80337;-70
2022/01/17 07:06:49;;;;;;;6.47;4.20;;;23.20;47.00;;;;;;6093465;28;82589;-72
2022/01/17 07:09:50;;;;;;;8.90;4.68;;;23.20;46.90;;;;;;6106758;28;80391;-70
2022/01/17 07:12:50;;;;;;;6.13;3.97;;;23.20;46.80;;;;;;6109529;28;82406;-70
2022/01/17 07:15:51;;;;;;;7.32;4.18;;;23.20;46.70;;;;;;6109754;28;80363;-70
2022/01/17 07:18:51;;;;;;;6.68;3.88;;;23.20;46.70;;;;;;6110200;28;80271;-69
2022/01/17 07:21:52;;;;;;;4.88;3.05;;;23.20;46.70;;;;;;6111816;28;80614;-70
2022/01/17 07:24:54;;;;;;;5.28;3.33;;;23.20;46.60;;;;;;6112967;28;81394;-70
2022/01/17 07:27:56;;;;;;;5.30;3.53;;;23.10;46.40;;;;;;6109645;28;80776;-71
2022/01/17 07:30:57;;;;;;;5.60;3.25;;;23.10;46.30;;;;;;6112146;28;80579;-71
2022/01/17 07:33:58;;;;;;;3.67;2.80;;;23.10;46.20;;;;;;6106052;28;80181;-71
2022/01/17 07:36:59;;;;;;;5.13;3.30;;;23.10;46.00;;;;;;6110258;28;82018;-71
2022/01/17 07:40:00;;;;;;;7.15;2.97;;;23.10;46.00;;;;;;6097964;28;80913;-71
2022/01/17 07:43:00;;;;;;;4.00;2.55;;;23.10;45.80;;;;;;6109842;28;80185;-69
2022/01/17 07:46:06;;;;;;;4.65;2.25;;;23.10;46.00;;;;;;6110891;28;80542;-69
2022/01/17 07:49:10;;;;;;;7.82;2.83;;;23.10;45.90;;;;;;6100761;28;81981;-69
2022/01/17 07:52:11;;;;;;;5.75;3.28;;;23.00;45.80;;;;;;6092172;28;83415;-70
2022/01/17 07:55:11;;;;;;;4.75;2.50;;;23.00;45.60;;;;;;6103552;28;81121;-70
2022/01/17 07:58:12;;;;;;;4.57;2.47;;;23.00;45.60;;;;;;6111175;28;81521;-70
2022/01/17 08:01:12;;;;;;;2.58;2.38;;;23.00;45.60;;;;;;6108686;28;83778;-70
2022/01/17 08:04:13;;;;;;;2.92;2.05;;;23.00;45.50;;;;;;6109980;28;80442;-70
2022/01/17 08:07:15;;;;;;;4.32;2.30;;;23.00;45.70;;;;;;6107880;28;80267;-70
2022/01/17 08:10:15;;;;;;;3.22;2.30;;;23.00;45.40;;;;;;6098518;28;81583;-71
2022/01/17 08:13:16;;;;;;;5.78;2.35;;;22.90;45.50;;;;;;6101514;28;80668;-67
2022/01/17 08:16:16;;;;;;;5.72;2.92;;;22.90;45.70;;;;;;6092505;28;82115;-66
2022/01/17 08:19:17;;;;;;;3.45;2.65;;;22.90;45.70;;;;;;6094708;28;80340;-67
2022/01/17 08:22:17;;;;;;;4.78;3.55;;;22.90;45.50;;;;;;6097038;28;85899;-69
2022/01/17 08:25:18;;;;;;;5.65;3.65;;;22.80;44.60;;;;;;6104286;28;80373;-67
2022/01/17 08:28:18;;;;;;;5.45;3.67;;;22.80;43.30;;;;;;6093612;28;83813;-68
2022/01/17 08:31:19;;;;;;;4.82;3.65;;;22.70;42.60;;;;;;6110202;28;80613;-68
2022/01/17 08:34:19;;;;;;;4.30;3.20;;;22.70;41.80;;;;;;6079857;28;80164;-68
2022/01/17 08:37:20;;;;;;;5.35;3.45;;;22.70;41.20;;;;;;6100198;28;80966;-68
2022/01/17 08:40:20;;;;;;;4.55;3.35;;;22.60;40.80;;;;;;6086691;28;83124;-68
2022/01/17 08:43:21;;;;;;;3.65;3.00;;;22.60;40.50;;;;;;6109451;28;80661;-67
2022/01/17 08:46:22;;;;;;;6.80;3.20;;;22.60;40.10;;;;;;6091196;28;83258;-68
2022/01/17 08:49:22;;;;;;;4.90;3.20;;;22.50;39.80;;;;;;6091774;28;83011;-67
2022/01/17 08:52:23;;;;;;;5.38;3.13;;;22.50;39.30;;;;;;6100233;28;82762;-65
2022/01/17 08:55:24;;;;;;;3.92;2.58;;;22.60;39.60;;;;;;6103738;28;80703;-66
2022/01/17 08:58:25;;;;;;;3.47;2.10;;;22.60;40.50;;;;;;6101908;28;81126;-65
2022/01/17 09:01:25;;;;;;;2.67;2.22;;;22.60;41.20;;;;;;6099250;28;80517;-67
2022/01/17 09:04:26;;;;;;;2.97;2.25;;;22.70;41.40;;;;;;6091447;28;83715;-66
2022/01/17 09:07:26;;;;;;;3.25;2.08;;;22.70;42.30;;;;;;6103860;28;80781;-67
2022/01/17 09:10:27;;;;;;;2.58;1.83;;;22.70;41.80;;;;;;6108738;28;80799;-66
2022/01/17 09:13:27;;;;;;;3.40;2.10;;;22.70;42.60;;;;;;6105844;28;80208;-65
2022/01/17 09:16:28;;;;;;;3.25;2.00;;;22.70;43.60;;;;;;6109361;28;80377;-68
2022/01/17 09:19:28;;;;;;;2.53;1.85;;;22.80;43.70;;;;;;6109059;28;80442;-68
2022/01/17 09:22:29;;;;;;;3.97;1.60;;;22.80;44.40;;;;;;6109483;28;80174;-68
2022/01/17 09:25:29;;;;;;;2.75;1.70;;;22.80;44.50;;;;;;6106555;28;82224;-66
2022/01/17 09:28:30;;;;;;;2.17;1.55;;;22.80;44.50;;;;;;6108551;28;81523;-66
2022/01/17 09:31:30;;;;;;;2.40;1.55;;;22.90;44.50;;;;;;6108675;28;80557;-66
2022/01/17 09:34:31;;;;;;;2.13;1.65;;;22.90;44.70;;;;;;6107964;28;81805;-69
2022/01/17 09:37:31;;;;;;;1.38;1.25;;;22.90;44.90;;;;;;6107398;28;80473;-66
2022/01/17 09:40:33;;;;;;;1.48;1.27;;;22.90;44.80;;;;;;6110300;28;80772;-67
2022/01/17 09:43:34;;;;;;;1.95;1.25;;;22.90;45.50;;;;;;6101693;28;80679;-65
2022/01/17 09:46:39;;;;;;;2.15;1.40;;;23.00;45.90;;;;;;6107993;28;81317;-64
2022/01/17 09:49:50;;;;;;;1.30;1.20;;;23.00;45.90;;;;;;6110265;28;80974;-66
2022/01/17 09:52:50;;;;;;;2.80;1.42;;;23.00;45.70;;;;;;6114559;28;80863;-66
2022/01/17 09:55:51;;;;;;;1.27;1.17;;;23.00;46.60;;;;;;6093312;28;82780;-65
2022/01/17 09:58:51;;;;;;;2.58;1.30;;;23.00;46.00;;;;;;6111974;28;80512;-64
2022/01/17 10:01:52;;;;;;;1.70;1.38;;;23.00;46.70;;;;;;6103749;28;81274;-63
2022/01/17 10:04:52;;;;;;;3.50;1.27;;;23.00;46.90;;;;;;6111946;28;80846;-64
2022/01/17 10:07:53;;;;;;;3.45;1.70;;;23.10;46.80;;;;;;6112783;28;80660;-65
2022/01/17 10:10:57;;;;;;;1.77;1.50;;;23.10;47.10;;;;;;6113380;28;80802;-70
2022/01/17 10:13:58;;;;;;;1.75;1.50;;;23.10;47.10;;;;;;6110850;28;81562;-69
2022/01/17 10:16:58;;;;;;;3.00;1.58;;;23.10;46.60;;;;;;6111311;28;80537;-69
2022/01/17 10:19:59;;;;;;;3.63;1.75;;;23.00;47.00;;;;;;6113093;28;81075;-69
2022/01/17 10:23:06;;;;;;;2.08;1.55;;;23.10;46.80;;;;;;6112781;28;80395;-69
2022/01/17 10:26:17;;;;;;;2.55;1.52;;;23.10;46.80;;;;;;6110066;28;80312;-66
2022/01/17 10:35:57;;;;;;;2.08;1.30;;;23.10;46.90;;;;;;6113001;28;80441;-69
2022/01/17 10:38:57;;;;;;;1.55;1.30;;;23.10;47.10;;;;;;6111756;28;80272;-67
2022/01/17 10:41:58;;;;;;;2.22;1.80;;;23.10;47.30;;;;;;6110697;28;80925;-66
2022/01/17 10:44:58;;;;;;;2.13;1.50;;;23.10;47.30;;;;;;6110526;28;80344;-68
2022/01/17 10:47:59;;;;;;;3.95;1.50;;;23.10;48.00;;;;;;6097248;28;80607;-67
2022/01/17 10:50:59;;;;;;;3.80;1.75;;;23.10;48.60;;;;;;6077505;28;82191;-71
2022/01/17 10:54:00;;;;;;;7.53;2.17;;;23.10;49.00;;;;;;6111325;28;81367;-71
2022/01/17 10:57:04;;;;;;;6.03;1.70;;;23.10;48.90;;;;;;6087555;28;80602;-68
2022/01/17 11:00:08;;;;;;;3.05;1.65;;;23.10;48.30;;;;;;6111667;28;80730;-65
2022/01/17 11:03:09;;;;;;;2.53;1.33;;;23.10;48.70;;;;;;6107321;28;80603;-66
2022/01/17 11:06:10;;;;;;;2.45;1.60;;;23.10;48.90;;;;;;6112356;28;80834;-67
2022/01/17 11:09:11;;;;;;;9.30;1.73;;;23.00;48.70;;;;;;6107605;28;80419;-66
2022/01/17 11:12:11;;;;;;;3.17;1.80;;;23.00;48.70;;;;;;6108877;28;81106;-68
2022/01/17 11:15:12;;;;;;;2.47;1.25;;;23.00;47.60;;;;;;6108286;28;80460;-68
2022/01/17 11:18:24;;;;;;;4.30;1.58;;;23.00;47.10;;;;;;6091799;28;87245;-70
2022/01/17 11:21:25;;;;;;;5.43;1.70;;;23.10;47.10;;;;;;6103275;28;80411;-66
2022/01/17 11:24:26;;;;;;;3.80;2.22;;;23.10;47.30;;;;;;6100003;28;80080;-66
2022/01/17 11:27:26;;;;;;;4.28;3.08;;;23.00;44.20;;;;;;6091808;28;83676;-66
2022/01/17 11:30:27;;;;;;;4.70;3.05;;;22.60;42.80;;;;;;6106543;28;80980;-69
2022/01/17 11:33:27;;;;;;;4.22;3.25;;;22.10;41.00;;;;;;6092105;28;81987;-69
2022/01/17 11:36:28;;;;;;;6.03;3.53;;;21.80;40.90;;;;;;6079357;28;83237;-64
2022/01/17 11:39:28;;;;;;;7.13;3.53;;;21.40;39.80;;;;;;6106885;28;80748;-68
2022/01/17 11:42:29;;;;;;;9.98;3.72;;;21.00;41.00;;;;;;6110334;28;80450;-68
2022/01/17 11:45:29;;;;;;;5.88;3.35;;;20.50;41.30;;;;;;6110183;28;80442;-66
2022/01/17 11:48:30;;;;;;;5.70;3.80;;;20.50;41.60;;;;;;6109429;28;83014;-65
2022/01/17 11:51:30;;;;;;;5.55;3.55;;;19.10;41.80;;;;;;6107498;28;80886;-67
2022/01/17 11:54:31;;;;;;;6.40;3.78;;;18.70;43.90;;;;;;6090729;28;82075;-66
2022/01/17 11:57:33;;;;;;;5.75;3.75;;;18.40;44.20;;;;;;6107820;28;80540;-67
2022/01/17 12:00:34;;;;;;;5.35;3.20;;;18.80;43.60;;;;;;6107337;28;81905;-67
2022/01/17 12:03:34;;;;;;;5.80;4.05;;;19.10;43.60;;;;;;6109324;28;80809;-66
2022/01/17 12:06:35;;;;;;;7.55;3.72;;;19.20;43.30;;;;;;6105839;28;81443;-67
2022/01/17 12:09:39;;;;;;;7.00;3.45;;;19.40;43.20;;;;;;6098705;28;80397;-67
2022/01/17 12:12:39;;;;;;;6.95;3.28;;;19.50;42.90;;;;;;6109853;28;80819;-67
2022/01/17 12:15:40;;;;;;;5.45;3.45;;;19.70;42.60;;;;;;6098148;28;80875;-65
2022/01/17 12:18:40;;;;;;;5.57;2.97;;;19.80;42.40;;;;;;6091727;28;81713;-67
2022/01/17 12:21:41;;;;;;;6.10;3.55;;;19.60;42.50;;;;;;6091362;28;80410;-68
2022/01/17 12:24:41;;;;;;;7.78;3.60;;;19.70;42.20;;;;;;6104986;28;80353;-69
2022/01/17 12:27:42;;;;;;;4.47;2.85;;;19.80;42.20;;;;;;6102469;28;81818;-68
2022/01/17 12:30:42;;;;;;;4.75;2.83;;;19.90;42.30;;;;;;6103951;28;82701;-68
2022/01/17 12:33:44;;;;;;;5.15;3.30;;;19.90;42.00;;;;;;6109262;28;80735;-68
2022/01/17 12:36:46;;;;;;;5.40;3.10;;;19.80;42.00;;;;;;6093500;28;81540;-68
2022/01/17 12:39:47;;;;;;;3.20;1.80;;;19.70;41.50;;;;;;6098309;28;81149;-67
2022/01/17 12:42:48;;;;;;;3.97;2.10;;;19.60;40.90;;;;;;6104835;28;80386;-67
2022/01/17 12:45:48;;;;;;;7.10;1.85;;;19.50;41.40;;;;;;6110077;28;81606;-68
2022/01/17 12:48:50;;;;;;;7.00;2.03;;;19.90;42.00;;;;;;6105386;28;80900;-68
2022/01/17 12:51:50;;;;;;;12.35;3.13;;;20.20;42.10;;;;;;6106534;28;80561;-68
2022/01/17 12:54:51;;;;;;;19.67;4.95;;;20.50;42.30;;;;;;6102569;28;80481;-68
2022/01/17 12:57:51;;;;;;;14.27;4.13;;;20.70;42.70;;;;;;6085141;28;83536;-70
2022/01/17 13:00:52;;;;;;;17.50;4.45;;;20.90;42.50;;;;;;6064248;28;82389;-69
2022/01/17 13:03:52;;;;;;;8.48;3.20;;;21.10;42.60;;;;;;6098387;28;82268;-67
2022/01/17 13:06:53;;;;;;;14.00;4.05;;;21.20;42.30;;;;;;6105218;28;81740;-68
2022/01/17 13:09:53;;;;;;;16.55;3.80;;;21.30;42.30;;;;;;6101542;28;81142;-68
2022/01/17 13:12:56;;;;;;;8.77;2.33;;;21.40;42.60;;;;;;6088905;28;81947;-68
2022/01/17 13:15:57;;;;;;;12.98;2.33;;;21.40;41.80;;;;;;6103305;28;81811;-68
2022/01/17 13:18:58;;;;;;;8.75;2.53;;;21.50;41.20;;;;;;6094119;28;81698;-67
2022/01/17 13:21:59;;;;;;;5.32;2.38;;;21.60;41.20;;;;;;6090715;28;80671;-67
2022/01/17 13:25:03;;;;;;;5.07;2.05;;;21.70;41.30;;;;;;6098072;28;80615;-69
2022/01/17 13:28:04;;;;;;;6.18;2.10;;;21.80;41.70;;;;;;6110364;28;81414;-69
2022/01/17 13:31:04;;;;;;;3.17;1.75;;;21.80;42.40;;;;;;6110662;28;80312;-65
2022/01/17 13:34:04;;;;;;;2.92;1.77;;;21.90;42.60;;;;;;6111005;28;81448;-65
2022/01/17 13:37:05;;;;;;;3.85;2.10;;;22.00;43.00;;;;;;6089482;28;82166;-68
2022/01/17 13:40:06;;;;;;;5.07;1.88;;;22.00;43.90;;;;;;6112260;28;80958;-66
2022/01/17 13:43:06;;;;;;;3.05;1.48;;;22.10;43.80;;;;;;6103886;28;81693;-66
2022/01/17 13:46:07;;;;;;;4.45;1.67;;;22.10;43.80;;;;;;6103372;28;80885;-66
2022/01/17 13:49:07;;;;;;;2.80;1.83;;;22.20;43.70;;;;;;6089921;28;80164;-66
2022/01/17 13:52:08;;;;;;;3.85;2.30;;;22.20;43.60;;;;;;6103172;28;80363;-66
2022/01/17 13:55:08;;;;;;;5.28;2.03;;;22.20;43.20;;;;;;6112930;28;80330;-66
2022/01/17 13:58:09;;;;;;;5.90;1.80;;;22.20;43.10;;;;;;6109831;28;80514;-67
2022/01/17 14:01:09;;;;;;;2.97;1.63;;;22.30;43.10;;;;;;6102999;28;80186;-66
2022/01/17 14:04:10;;;;;;;3.50;1.52;;;22.30;42.90;;;;;;6109191;28;81331;-66
2022/01/17 14:07:10;;;;;;;5.63;2.15;;;22.30;42.70;;;;;;6108355;28;81687;-64
2022/01/17 14:10:11;;;;;;;2.67;1.55;;;22.30;42.60;;;;;;6109283;28;80642;-65
2022/01/17 14:13:11;;;;;;;2.30;1.38;;;22.40;42.40;;;;;;6102292;28;80602;-66
2022/01/17 14:16:12;;;;;;;2.90;1.50;;;22.40;42.30;;;;;;6083693;28;81965;-68
2022/01/17 14:19:12;;;;;;;5.75;1.75;;;22.40;42.50;;;;;;6083496;28;80719;-68
2022/01/17 14:22:13;;;;;;;3.55;2.08;;;22.30;42.60;;;;;;6095460;28;80405;-69
2022/01/17 14:25:13;;;;;;;2.03;1.60;;;22.10;44.10;;;;;;6096955;28;80625;-68
2022/01/17 14:28:14;;;;;;;4.35;1.88;;;22.00;44.90;;;;;;6105177;28;81346;-65
2022/01/17 14:31:14;;;;;;;2.58;1.88;;;22.00;45.30;;;;;;6107825;28;80240;-67
2022/01/17 14:34:15;;;;;;;2.38;1.70;;;21.90;45.70;;;;;;6110355;28;80618;-67
2022/01/17 14:37:16;;;;;;;2.78;1.60;;;21.90;46.70;;;;;;6088313;28;80546;-66
2022/01/17 14:40:17;;;;;;;3.42;2.00;;;21.90;46.30;;;;;;6112498;28;82116;-67
2022/01/17 14:43:17;;;;;;;2.30;1.67;;;21.90;46.30;;;;;;6110206;28;81928;-67
2022/01/17 14:46:18;;;;;;;2.83;1.63;;;21.80;46.40;;;;;;6112451;28;82189;-67
2022/01/17 14:49:19;;;;;;;3.40;1.70;;;21.80;46.70;;;;;;6109724;28;81487;-67
2022/01/17 14:52:19;;;;;;;2.85;1.88;;;21.80;46.70;;;;;;6108554;28;80798;-68
2022/01/17 15:05:02;;;;;;;6.82;2.63;;;21.90;47.20;;;;;;6107364;28;81729;-67
2022/01/17 15:08:03;;;;;;;8.05;2.35;;;21.90;47.20;;;;;;6111558;28;80193;-69
2022/01/17 15:11:04;;;;;;;5.63;2.60;;;21.80;47.50;;;;;;6109096;28;80738;-69
2022/01/17 15:14:04;;;;;;;4.28;2.35;;;21.90;48.00;;;;;;6097467;28;80206;-71
2022/01/17 15:17:05;;;;;;;5.03;2.83;;;21.90;48.30;;;;;;6100848;28;81156;-69
2022/01/17 15:20:06;;;;;;;4.30;2.63;;;22.00;48.60;;;;;;6108693;28;80599;-69
2022/01/17 15:23:06;;;;;;;5.18;2.75;;;22.00;48.60;;;;;;6104273;28;80692;-68
2022/01/17 15:26:07;;;;;;;6.43;2.80;;;21.90;48.60;;;;;;6084986;28;81863;-68
2022/01/17 15:29:12;;;;;;;5.90;2.55;;;22.00;48.70;;;;;;6109599;28;80866;-68
2022/01/17 15:32:14;;;;;;;4.80;2.83;;;22.00;48.70;;;;;;6100896;28;85241;-68
2022/01/17 15:35:15;;;;;;;7.18;3.33;;;22.00;48.90;;;;;;6093206;28;80511;-67
2022/01/17 15:38:16;;;;;;;5.47;2.55;;;22.00;48.70;;;;;;6106708;28;80565;-67
2022/01/17 15:41:19;;;;;;;6.07;3.30;;;22.10;48.90;;;;;;6110785;28;80517;-67
2022/01/17 15:44:19;;;;;;;5.03;2.80;;;22.10;48.90;;;;;;6094395;28;80404;-69
2022/01/17 15:47:20;;;;;;;5.38;2.83;;;22.10;48.80;;;;;;6087535;28;82151;-66
2022/01/17 15:50:21;;;;;;;6.60;3.40;;;22.10;48.60;;;;;;6094319;28;80453;-67
2022/01/17 15:53:21;;;;;;;5.28;3.05;;;22.20;48.80;;;;;;6099693;28;80632;-65
2022/01/17 15:56:22;;;;;;;5.25;3.15;;;22.20;48.90;;;;;;6093334;28;82367;-65
2022/01/17 15:59:22;;;;;;;6.43;3.40;;;22.20;48.80;;;;;;6108036;28;80925;-65
2022/01/17 16:02:23;;;;;;;9.48;4.05;;;22.30;48.70;;;;;;6094271;28;81202;-64
2022/01/17 16:05:23;;;;;;;6.07;3.72;;;22.30;48.60;;;;;;6109741;28;80126;-66
2022/01/17 16:08:24;;;;;;;6.50;3.30;;;22.30;48.60;;;;;;6111265;28;81476;-65
2022/01/17 16:11:25;;;;;;;5.40;3.30;;;22.30;48.40;;;;;;6092321;28;81518;-64
2022/01/17 16:14:27;;;;;;;6.28;3.42;;;22.40;48.70;;;;;;6102897;28;80627;-63